Time;durP1;ratioP1;P1;durP2;ratioP2;P2;SDS_P1;SDS_P2;PMS_P1;PMS_P2;Temp;Humidity;BMP_temperature;BMP_pressure;BME280_temperature;BME280_humidity;BME280_pressure;Samples;Min_cycle;Max_cycle;Signal;HPM_P1;HPM_P2
2022/03/12 00:01:45;;;;;;;9.43;5.95;;;6.30;70.20;;;;;;5052083;28;20389;-72
2022/03/12 00:04:11;;;;;;;14.50;6.10;;;6.30;70.80;;;;;;5052713;28;20041;-71
2022/03/12 00:06:37;;;;;;;11.75;6.40;;;6.30;70.80;;;;;;5035813;28;20037;-72
2022/03/12 00:09:03;;;;;;;9.88;6.63;;;6.30;70.70;;;;;;5052781;28;20174;-71
2022/03/12 00:11:40;;;;;;;13.27;6.47;;;6.30;71.00;;;;;;5052712;28;20454;-71
2022/03/12 00:14:07;;;;;;;10.80;6.65;;;6.30;71.10;;;;;;5052366;28;20461;-71
2022/03/12 00:16:33;;;;;;;10.80;6.22;;;6.20;71.30;;;;;;5035930;28;20492;-71
2022/03/12 00:19:02;;;;;;;8.95;6.00;;;6.50;71.00;;;;;;5052501;28;20044;-71
2022/03/12 00:21:30;;;;;;;9.80;6.20;;;6.20;71.20;;;;;;5035444;28;20037;-71
2022/03/12 00:23:59;;;;;;;11.65;7.35;;;6.20;71.30;;;;;;5051955;28;20041;-71
2022/03/12 00:26:27;;;;;;;12.27;6.32;;;6.70;71.80;;;;;;5035625;28;20043;-72
2022/03/12 00:28:54;;;;;;;8.18;5.82;;;6.20;71.50;;;;;;5035316;28;20049;-72
2022/03/12 00:31:20;;;;;;;9.95;6.15;;;6.10;71.80;;;;;;5035079;28;20040;-71
2022/03/12 00:33:46;;;;;;;10.40;6.65;;;6.00;72.30;;;;;;5051756;28;20190;-72
2022/03/12 00:36:12;;;;;;;9.35;6.38;;;6.00;72.20;;;;;;5052061;28;20480;-72
2022/03/12 00:38:39;;;;;;;13.95;7.53;;;6.00;72.50;;;;;;5051669;28;20041;-71
2022/03/12 00:41:07;;;;;;;8.18;6.03;;;6.00;72.10;;;;;;5017871;28;20032;-72
2022/03/12 00:43:33;;;;;;;10.75;6.55;;;5.90;72.50;;;;;;5034970;28;20370;-71
2022/03/12 00:45:58;;;;;;;11.63;6.68;;;5.90;73.00;;;;;;5051656;28;20045;-71
2022/03/12 00:48:24;;;;;;;11.90;6.15;;;5.90;72.30;;;;;;5051695;28;20106;-71
2022/03/12 00:50:50;;;;;;;9.95;5.80;;;5.80;73.00;;;;;;5051365;28;20041;-71
2022/03/12 00:53:16;;;;;;;14.95;7.47;;;5.80;73.40;;;;;;5034854;28;20049;-71
2022/03/12 00:55:42;;;;;;;10.98;6.93;;;5.80;73.00;;;;;;5051152;28;20036;-71
2022/03/12 00:58:08;;;;;;;11.88;6.97;;;6.00;73.70;;;;;;5034773;28;20049;-71
2022/03/12 01:00:34;;;;;;;13.15;7.03;;;5.70;72.90;;;;;;5051477;28;20048;-71
2022/03/12 01:03:01;;;;;;;12.05;7.40;;;5.70;73.20;;;;;;5051433;28;20412;-72
2022/03/12 01:05:42;;;;;;;10.20;6.65;;;5.70;72.90;;;;;;5051042;28;20052;-71
2022/03/12 01:08:08;;;;;;;9.77;7.07;;;5.70;73.00;;;;;;5051324;28;20044;-71
2022/03/12 01:10:34;;;;;;;10.45;7.03;;;6.20;73.20;;;;;;5018538;28;20044;-72
2022/03/12 01:13:00;;;;;;;12.10;6.30;;;5.70;72.90;;;;;;5034522;28;20083;-71
2022/03/12 01:15:25;;;;;;;13.65;7.28;;;5.80;73.60;;;;;;5050925;28;20084;-73
2022/03/12 01:17:51;;;;;;;11.25;7.10;;;6.10;73.40;;;;;;5050695;28;20116;-71
2022/03/12 01:20:21;;;;;;;9.68;6.43;;;5.70;73.50;;;;;;5050646;28;20087;-70
2022/03/12 01:22:46;;;;;;;14.90;7.40;;;5.70;73.60;;;;;;5034107;28;20041;-71
2022/03/12 01:25:12;;;;;;;13.98;6.63;;;5.70;73.90;;;;;;5034066;28;20786;-71
2022/03/12 01:27:38;;;;;;;9.60;6.20;;;5.60;73.90;;;;;;5034134;28;20455;-72
2022/03/12 01:30:07;;;;;;;10.90;6.72;;;5.60;73.80;;;;;;5017753;28;20040;-71
2022/03/12 01:32:33;;;;;;;11.93;5.90;;;5.60;73.80;;;;;;5050857;28;20091;-71
2022/03/12 01:34:58;;;;;;;10.07;6.60;;;5.70;74.00;;;;;;5050713;28;20049;-71
2022/03/12 01:37:24;;;;;;;12.15;6.68;;;5.60;73.90;;;;;;5050692;28;20048;-71
2022/03/12 01:39:50;;;;;;;12.02;7.20;;;5.90;74.50;;;;;;5050668;28;20423;-71
2022/03/12 01:42:19;;;;;;;10.52;6.78;;;5.60;74.30;;;;;;5034011;28;20103;-71
2022/03/12 01:44:45;;;;;;;11.48;6.75;;;5.60;74.50;;;;;;5050504;28;20045;-71
2022/03/12 01:47:11;;;;;;;13.10;6.45;;;5.60;74.60;;;;;;5050815;28;20052;-72
2022/03/12 01:49:38;;;;;;;14.27;6.95;;;6.00;74.70;;;;;;5050916;28;20435;-70
2022/03/12 01:52:04;;;;;;;12.57;6.68;;;5.80;75.00;;;;;;5050337;28;20037;-72
2022/03/12 01:54:30;;;;;;;10.48;6.93;;;5.60;74.40;;;;;;5050521;28;20095;-72
2022/03/12 01:56:58;;;;;;;11.90;6.78;;;5.60;74.60;;;;;;5017389;28;20056;-72
2022/03/12 01:59:24;;;;;;;11.23;6.78;;;5.60;74.80;;;;;;5050301;28;20075;-70
2022/03/12 02:01:52;;;;;;;10.98;6.28;;;5.60;75.00;;;;;;5050013;28;20053;-71
2022/03/12 02:04:23;;;;;;;12.25;6.63;;;5.60;75.30;;;;;;5050500;28;20120;-71
2022/03/12 02:06:50;;;;;;;10.50;6.97;;;5.60;75.00;;;;;;5050199;28;20048;-71
2022/03/12 02:09:18;;;;;;;10.15;6.78;;;5.60;74.80;;;;;;5050177;28;20053;-71
2022/03/12 02:11:49;;;;;;;11.65;7.07;;;5.60;75.80;;;;;;5050493;28;20045;-71
2022/03/12 02:14:19;;;;;;;12.15;6.47;;;6.40;75.30;;;;;;5050068;28;20052;-71
2022/03/12 02:16:48;;;;;;;13.52;6.80;;;5.50;75.40;;;;;;5050420;28;20075;-71
2022/03/12 02:19:13;;;;;;;9.88;6.78;;;6.90;76.70;;;;;;5050238;28;20045;-71
2022/03/12 02:21:54;;;;;;;10.60;7.38;;;5.50;75.80;;;;;;5033853;28;20063;-71
2022/03/12 02:24:22;;;;;;;12.25;7.65;;;5.50;75.70;;;;;;5050436;28;20400;-70
2022/03/12 02:26:49;;;;;;;10.15;7.22;;;5.50;75.80;;;;;;5049939;28;20120;-71
2022/03/12 02:29:20;;;;;;;11.07;7.22;;;5.50;75.90;;;;;;5050371;28;20037;-71
2022/03/12 02:31:54;;;;;;;;;;;5.50;75.50;;;;;;5034171;28;20053;-71
2022/03/12 02:34:22;;;;;;;13.73;6.78;;;5.50;76.20;;;;;;5050144;28;19996;-71
2022/03/12 02:36:51;;;;;;;11.10;7.28;;;5.50;75.60;;;;;;5016967;28;20049;-71
2022/03/12 02:39:19;;;;;;;9.02;6.63;;;5.50;75.90;;;;;;5050163;28;20044;-71
2022/03/12 02:41:46;;;;;;;11.20;6.82;;;5.50;75.80;;;;;;5050021;28;20037;-71
2022/03/12 02:44:17;;;;;;;13.20;7.05;;;5.50;76.30;;;;;;5049958;28;20041;-71
2022/03/12 02:46:45;;;;;;;11.73;7.18;;;5.40;76.80;;;;;;5050245;28;20049;-71
2022/03/12 02:49:11;;;;;;;12.40;6.93;;;5.40;76.40;;;;;;5050250;28;20370;-71
2022/03/12 02:51:40;;;;;;;12.63;8.15;;;5.40;76.60;;;;;;5033652;28;20053;-71
2022/03/12 02:54:06;;;;;;;11.73;6.88;;;5.40;76.50;;;;;;5033846;28;20478;-71
2022/03/12 02:56:35;;;;;;;12.02;7.18;;;5.60;76.70;;;;;;5049795;28;20184;-71
2022/03/12 02:59:01;;;;;;;12.20;7.13;;;5.60;76.50;;;;;;5017470;28;20124;-71
2022/03/12 03:01:28;;;;;;;12.20;7.65;;;5.40;76.40;;;;;;5050184;28;20088;-71
2022/03/12 03:03:56;;;;;;;10.27;6.90;;;5.70;76.90;;;;;;5019316;28;20385;-71
2022/03/12 03:06:22;;;;;;;13.35;7.00;;;5.60;76.90;;;;;;5037301;28;20045;-71
2022/03/12 03:08:47;;;;;;;10.20;6.70;;;5.40;76.90;;;;;;5053422;28;20049;-71
2022/03/12 03:11:16;;;;;;;10.38;6.70;;;3.80;75.50;;;;;;5053515;28;20041;-71
2022/03/12 03:13:44;;;;;;;11.15;6.22;;;5.40;76.40;;;;;;5036784;28;20079;-71
2022/03/12 03:16:09;;;;;;;11.23;6.47;;;5.40;76.10;;;;;;5053602;28;20123;-71
2022/03/12 03:18:40;;;;;;;11.13;7.05;;;5.40;76.90;;;;;;5053416;28;20147;-71
2022/03/12 03:21:13;;;;;;;11.80;6.70;;;6.10;77.40;;;;;;5053608;28;20045;-71
2022/03/12 03:23:43;;;;;;;11.23;7.18;;;5.30;77.20;;;;;;5053538;28;20539;-71
2022/03/12 03:26:09;;;;;;;10.07;7.00;;;5.30;77.30;;;;;;5053177;28;20045;-71
2022/03/12 03:28:35;;;;;;;10.63;7.25;;;5.40;77.10;;;;;;5036430;28;20044;-71
2022/03/12 03:31:04;;;;;;;11.27;7.40;;;5.40;77.10;;;;;;5019779;28;20504;-71
2022/03/12 03:33:30;;;;;;;11.95;6.57;;;5.30;76.90;;;;;;5052886;28;20044;-71
2022/03/12 03:35:55;;;;;;;11.32;7.20;;;5.40;77.50;;;;;;5036094;28;20488;-71
2022/03/12 03:38:21;;;;;;;15.00;7.35;;;5.30;77.70;;;;;;5020089;28;20546;-71
2022/03/12 03:40:47;;;;;;;11.50;6.95;;;5.30;77.80;;;;;;5053290;28;20478;-71
2022/03/12 03:43:18;;;;;;;11.95;6.85;;;5.20;77.60;;;;;;5052788;28;20047;-71
2022/03/12 03:45:46;;;;;;;12.93;7.18;;;5.20;78.20;;;;;;5036095;28;20095;-71
2022/03/12 03:48:16;;;;;;;10.13;6.80;;;5.20;78.40;;;;;;5052655;28;20047;-71
2022/03/12 03:50:43;;;;;;;10.52;7.30;;;5.30;78.10;;;;;;5053033;28;20504;-71
2022/03/12 03:53:15;;;;;;;11.05;6.60;;;5.20;78.60;;;;;;5052597;28;20045;-71
2022/03/12 03:55:42;;;;;;;11.15;7.75;;;5.20;78.70;;;;;;5052612;28;20094;-71
2022/03/12 03:58:10;;;;;;;10.60;6.55;;;5.10;78.70;;;;;;5052547;28;20052;-72
2022/03/12 04:00:36;;;;;;;12.13;7.10;;;5.10;79.30;;;;;;5052264;28;20125;-71
2022/03/12 04:03:02;;;;;;;11.02;7.57;;;5.00;79.10;;;;;;5052421;28;20519;-71
2022/03/12 04:05:36;;;;;;;11.75;6.72;;;5.00;79.30;;;;;;5052348;28;20052;-71
2022/03/12 04:08:07;;;;;;;13.30;7.25;;;5.00;80.30;;;;;;5052384;28;20064;-72
2022/03/12 04:10:34;;;;;;;10.02;7.07;;;4.90;79.70;;;;;;5052629;28;20048;-72
2022/03/12 04:13:00;;;;;;;11.88;6.82;;;4.90;80.40;;;;;;5052171;28;20049;-71
2022/03/12 04:15:26;;;;;;;9.85;6.45;;;5.60;81.00;;;;;;5051057;28;20045;-72
2022/03/12 04:17:53;;;;;;;11.00;7.13;;;4.80;80.50;;;;;;5052107;28;20067;-71
2022/03/12 04:20:20;;;;;;;8.82;5.53;;;4.80;80.20;;;;;;5018969;28;20082;-72
2022/03/12 04:22:48;;;;;;;11.48;6.63;;;4.70;80.80;;;;;;5051992;28;20044;-72
2022/03/12 04:25:15;;;;;;;7.95;6.07;;;4.70;80.10;;;;;;5035653;28;20044;-72
2022/03/12 04:27:44;;;;;;;9.65;5.88;;;4.70;80.80;;;;;;5052219;28;20544;-72
2022/03/12 04:30:12;;;;;;;11.25;7.35;;;4.70;80.80;;;;;;5035463;28;20131;-72
2022/03/12 04:32:39;;;;;;;9.38;6.90;;;4.60;80.70;;;;;;5052063;28;20041;-71
2022/03/12 04:35:06;;;;;;;11.02;6.88;;;5.60;81.10;;;;;;5052121;28;20439;-71
2022/03/12 04:37:33;;;;;;;11.38;7.10;;;4.70;80.80;;;;;;5051525;28;20090;-71
2022/03/12 04:39:58;;;;;;;10.60;6.90;;;4.70;81.30;;;;;;5035306;28;20492;-71
2022/03/12 04:42:24;;;;;;;9.00;6.60;;;4.70;81.00;;;;;;5051563;28;20033;-70
2022/03/12 04:44:50;;;;;;;9.82;6.45;;;5.30;81.10;;;;;;5018606;28;20059;-70
2022/03/12 04:47:19;;;;;;;12.57;7.07;;;4.60;81.10;;;;;;5051676;28;20055;-70
2022/03/12 04:49:46;;;;;;;9.32;6.57;;;5.40;81.80;;;;;;5051963;28;20052;-71
2022/03/12 04:52:12;;;;;;;10.70;6.32;;;4.60;81.50;;;;;;5051491;28;20054;-71
2022/03/12 04:54:39;;;;;;;14.02;6.90;;;4.60;81.20;;;;;;5051650;28;20057;-71
2022/03/12 04:57:05;;;;;;;12.00;7.20;;;4.60;81.20;;;;;;5051327;28;20045;-71
2022/03/12 04:59:31;;;;;;;12.25;7.30;;;4.60;81.60;;;;;;5051289;28;20047;-71
2022/03/12 05:01:59;;;;;;;11.45;6.18;;;4.50;81.20;;;;;;5051134;28;20499;-71
2022/03/12 05:04:25;;;;;;;8.68;6.38;;;4.50;81.00;;;;;;5051317;28;20037;-71
2022/03/12 05:06:51;;;;;;;10.98;7.00;;;4.50;81.60;;;;;;5051347;28;20036;-71
2022/03/12 05:09:19;;;;;;;11.07;6.70;;;4.50;81.40;;;;;;5051476;28;20092;-71
2022/03/12 05:11:45;;;;;;;12.35;6.63;;;4.40;81.80;;;;;;5051347;28;20045;-72
2022/03/12 05:14:16;;;;;;;11.25;6.43;;;4.40;81.90;;;;;;5050982;28;20386;-71
2022/03/12 05:16:44;;;;;;;10.98;6.10;;;4.40;81.70;;;;;;5034619;28;20119;-71
2022/03/12 05:19:10;;;;;;;10.98;6.25;;;4.40;81.60;;;;;;5051154;28;20074;-71
2022/03/12 05:21:35;;;;;;;12.75;6.10;;;4.30;81.90;;;;;;5034283;28;20157;-71
2022/03/12 05:24:02;;;;;;;10.48;6.07;;;4.30;81.50;;;;;;5050873;28;20041;-71
2022/03/12 05:26:27;;;;;;;13.75;5.90;;;4.30;83.20;;;;;;5034277;28;20055;-72
2022/03/12 05:28:53;;;;;;;9.60;6.78;;;4.30;81.80;;;;;;5017922;28;20412;-71
2022/03/12 05:31:19;;;;;;;10.55;6.00;;;4.30;81.80;;;;;;5050878;28;20132;-70
2022/03/12 05:33:46;;;;;;;8.63;5.70;;;4.20;81.40;;;;;;5050944;28;20048;-71
2022/03/12 05:36:12;;;;;;;8.75;5.30;;;4.20;81.50;;;;;;5050515;28;20071;-70
2022/03/12 05:38:38;;;;;;;9.60;6.03;;;4.20;81.80;;;;;;5050545;28;20044;-71
2022/03/12 05:41:10;;;;;;;10.50;5.72;;;4.20;81.90;;;;;;5050684;28;20052;-71
2022/03/12 05:43:46;;;;;;;9.02;5.90;;;4.20;81.80;;;;;;5050730;28;20444;-71
2022/03/12 05:46:16;;;;;;;8.90;5.65;;;4.20;82.30;;;;;;5035507;28;20487;-72
2022/03/12 05:48:45;;;;;;;9.13;6.13;;;4.10;82.60;;;;;;5050578;28;20052;-72
2022/03/12 05:51:11;;;;;;;9.80;6.25;;;4.20;81.90;;;;;;5051146;28;20068;-72
2022/03/12 05:53:37;;;;;;;11.77;5.60;;;4.10;82.30;;;;;;5051150;28;20033;-72
2022/03/12 05:56:04;;;;;;;8.98;5.82;;;4.10;81.90;;;;;;5033999;28;20047;-71
2022/03/12 05:58:35;;;;;;;31.23;8.30;;;4.10;82.60;;;;;;5050950;28;20072;-72
2022/03/12 06:01:01;;;;;;;9.55;5.75;;;4.10;82.40;;;;;;5050406;28;20057;-71
2022/03/12 06:03:27;;;;;;;15.32;6.68;;;4.10;82.10;;;;;;5017333;28;20037;-71
2022/03/12 06:05:56;;;;;;;8.23;5.95;;;4.30;82.30;;;;;;5050480;28;20041;-71
2022/03/12 06:08:22;;;;;;;8.68;6.03;;;4.00;82.20;;;;;;5050680;28;20107;-71
2022/03/12 06:10:54;;;;;;;9.48;5.85;;;4.00;83.10;;;;;;5017402;28;20102;-71
2022/03/12 06:13:24;;;;;;;10.60;5.63;;;4.00;82.60;;;;;;5034889;28;20175;-71
2022/03/12 06:15:58;;;;;;;7.93;5.18;;;4.00;83.00;;;;;;5033996;28;20041;-71
2022/03/12 06:18:26;;;;;;;14.07;5.55;;;4.10;82.50;;;;;;5050356;28;20496;-71
2022/03/12 06:20:51;;;;;;;10.00;6.22;;;4.10;83.10;;;;;;5033950;28;20124;-71
2022/03/12 06:23:18;;;;;;;9.00;5.82;;;4.10;82.90;;;;;;5033645;28;20127;-71
2022/03/12 06:25:43;;;;;;;10.50;6.10;;;4.10;83.40;;;;;;5050291;28;20044;-71
2022/03/12 06:28:09;;;;;;;9.23;5.60;;;4.10;83.20;;;;;;5050322;28;20444;-71
2022/03/12 06:30:35;;;;;;;11.02;5.30;;;4.20;82.90;;;;;;5033601;28;20098;-71
2022/03/12 06:33:03;;;;;;;7.63;5.93;;;4.20;83.90;;;;;;5017258;28;20591;-72
2022/03/12 06:35:28;;;;;;;11.55;6.28;;;4.20;83.10;;;;;;5017650;28;20049;-72
2022/03/12 06:37:57;;;;;;;11.70;5.88;;;4.20;83.10;;;;;;5050733;28;20114;-71
2022/03/12 06:40:28;;;;;;;9.27;6.13;;;4.30;82.80;;;;;;5054164;28;20044;-71
2022/03/12 06:42:56;;;;;;;10.32;5.28;;;4.30;82.20;;;;;;5054030;28;20048;-70
2022/03/12 06:45:24;;;;;;;16.55;6.07;;;4.40;82.40;;;;;;5054335;28;20037;-72
2022/03/12 06:47:51;;;;;;;9.35;5.35;;;4.40;82.40;;;;;;5054383;28;20076;-71
2022/03/12 06:50:21;;;;;;;10.60;5.63;;;4.40;81.80;;;;;;5053838;28;20041;-72
2022/03/12 06:52:48;;;;;;;9.73;5.45;;;4.40;81.90;;;;;;5055202;28;20544;-72
2022/03/12 06:55:21;;;;;;;10.02;6.20;;;4.50;81.80;;;;;;5053956;28;20040;-72
2022/03/12 06:57:47;;;;;;;8.77;5.30;;;4.50;81.70;;;;;;5053605;28;20040;-72
2022/03/12 07:00:16;;;;;;;8.38;6.30;;;4.50;81.70;;;;;;5053940;28;20045;-72
2022/03/12 07:02:42;;;;;;;9.35;5.85;;;4.60;81.90;;;;;;5037165;28;20555;-72
2022/03/12 07:05:09;;;;;;;8.75;5.53;;;6.70;83.00;;;;;;5036973;28;20080;-72
2022/03/12 07:07:35;;;;;;;9.05;5.78;;;4.70;81.50;;;;;;5036865;28;20041;-72
2022/03/12 07:10:00;;;;;;;10.90;6.47;;;4.80;81.80;;;;;;5053276;28;20052;-70
2022/03/12 07:12:26;;;;;;;10.55;5.55;;;4.80;81.90;;;;;;5053496;28;20415;-71
2022/03/12 07:14:52;;;;;;;10.25;5.85;;;4.90;82.00;;;;;;5036723;28;20044;-72
2022/03/12 07:17:18;;;;;;;10.85;6.15;;;5.00;81.50;;;;;;5053398;28;20048;-72
2022/03/12 07:19:43;;;;;;;9.75;5.63;;;5.00;81.20;;;;;;5020470;28;20039;-72
2022/03/12 07:22:10;;;;;;;8.77;5.45;;;5.80;81.00;;;;;;5053215;28;20085;-72
2022/03/12 07:24:35;;;;;;;10.52;5.80;;;5.20;81.30;;;;;;5036532;28;20041;-73
2022/03/12 07:27:02;;;;;;;12.85;6.63;;;5.20;80.90;;;;;;5037022;28;20401;-71
2022/03/12 07:29:31;;;;;;;11.30;5.40;;;5.30;80.20;;;;;;5053349;28;20086;-71
2022/03/12 07:31:57;;;;;;;10.43;6.07;;;5.20;81.50;;;;;;5053223;28;20091;-70
2022/03/12 07:34:24;;;;;;;9.43;5.55;;;5.30;81.40;;;;;;5036861;28;20528;-71
2022/03/12 07:36:50;;;;;;;8.00;5.43;;;5.30;80.60;;;;;;5052870;28;20037;-71
2022/03/12 07:39:15;;;;;;;9.40;6.10;;;5.30;81.10;;;;;;5053195;28;20464;-71
2022/03/12 07:41:41;;;;;;;11.32;5.78;;;5.30;81.70;;;;;;5036559;28;20075;-71
2022/03/12 07:44:07;;;;;;;9.13;6.15;;;5.30;81.90;;;;;;5052984;28;20079;-71
2022/03/12 07:46:34;;;;;;;8.55;6.32;;;5.30;81.50;;;;;;5052845;28;20049;-71
2022/03/12 07:49:00;;;;;;;11.80;6.13;;;5.40;82.10;;;;;;5052327;28;20048;-72
2022/03/12 07:51:27;;;;;;;11.93;6.32;;;5.50;82.30;;;;;;5052781;28;20503;-72
2022/03/12 07:53:52;;;;;;;11.23;6.03;;;5.90;82.00;;;;;;5052475;28;20176;-71
2022/03/12 07:56:20;;;;;;;10.27;6.10;;;5.80;82.00;;;;;;5035902;28;20478;-72
2022/03/12 07:58:46;;;;;;;8.73;5.72;;;6.10;81.30;;;;;;5019403;28;20480;-72
2022/03/12 08:01:11;;;;;;;11.02;5.78;;;6.10;81.30;;;;;;5052336;28;20083;-73
2022/03/12 08:03:38;;;;;;;10.63;6.25;;;6.20;81.20;;;;;;5019158;28;20448;-70
2022/03/12 08:06:06;;;;;;;10.15;5.75;;;6.70;82.00;;;;;;5035994;28;20075;-71
2022/03/12 08:08:32;;;;;;;9.70;6.10;;;6.50;81.40;;;;;;5052252;28;20037;-70
2022/03/12 08:13:44;;;;;;;8.80;6.35;;;6.90;81.10;;;;;;5038222;28;20052;-71
2022/03/12 08:16:12;;;;;;;11.25;6.65;;;6.60;81.20;;;;;;5035860;28;20120;-71
2022/03/12 08:18:38;;;;;;;10.63;7.00;;;6.80;80.70;;;;;;5036072;28;20099;-70
2022/03/12 08:21:04;;;;;;;8.13;5.80;;;6.90;80.50;;;;;;5035413;28;20497;-71
2022/03/12 08:23:29;;;;;;;9.75;6.95;;;7.00;80.50;;;;;;5035759;28;20033;-70
2022/03/12 08:25:57;;;;;;;10.52;6.38;;;7.20;81.50;;;;;;5052039;28;20048;-70
2022/03/12 08:28:23;;;;;;;10.63;6.20;;;7.30;81.00;;;;;;5019274;28;20128;-71
2022/03/12 08:30:49;;;;;;;9.77;6.43;;;7.30;80.60;;;;;;5035447;28;20087;-71
2022/03/12 08:33:17;;;;;;;10.18;6.47;;;7.30;80.70;;;;;;5052182;28;20465;-72
2022/03/12 08:35:43;;;;;;;9.80;6.93;;;7.40;80.90;;;;;;5035481;28;20045;-70
2022/03/12 08:38:09;;;;;;;11.15;6.65;;;7.50;81.40;;;;;;5051683;28;20167;-71
2022/03/12 08:40:35;;;;;;;10.38;6.47;;;7.70;80.70;;;;;;5051679;28;20411;-71
2022/03/12 08:43:01;;;;;;;10.32;6.90;;;7.70;81.20;;;;;;5051578;28;20120;-72
2022/03/12 08:45:28;;;;;;;9.80;6.75;;;7.80;81.00;;;;;;5051905;28;20126;-71
2022/03/12 08:47:54;;;;;;;9.52;6.82;;;7.90;81.10;;;;;;5018586;28;20071;-71
2022/03/12 08:50:20;;;;;;;12.75;6.78;;;8.20;81.00;;;;;;5052249;28;20159;-72
2022/03/12 08:52:47;;;;;;;10.00;6.43;;;8.40;81.00;;;;;;5035454;28;20153;-72
2022/03/12 08:55:12;;;;;;;12.65;6.70;;;8.50;79.90;;;;;;5051759;28;20052;-72
2022/03/12 08:57:39;;;;;;;13.10;7.20;;;8.60;80.70;;;;;;5051541;28;20581;-72
2022/03/12 09:00:07;;;;;;;13.05;7.07;;;8.70;80.60;;;;;;5051246;28;20094;-71
2022/03/12 09:02:35;;;;;;;11.95;6.53;;;8.80;80.00;;;;;;5034769;28;20079;-72
2022/03/12 09:05:04;;;;;;;9.63;6.72;;;8.90;80.40;;;;;;5051419;28;20049;-71
2022/03/12 09:07:31;;;;;;;12.30;7.60;;;9.00;80.00;;;;;;5051413;28;20051;-72
2022/03/12 09:09:57;;;;;;;12.10;7.22;;;9.20;80.80;;;;;;5034993;28;20033;-72
2022/03/12 09:12:23;;;;;;;12.25;7.70;;;9.30;80.20;;;;;;5051324;28;20049;-72
2022/03/12 09:14:50;;;;;;;12.68;7.38;;;9.50;80.60;;;;;;5051354;28;20041;-72
2022/03/12 09:17:16;;;;;;;11.50;7.30;;;9.50;80.40;;;;;;5051375;28;20049;-72
2022/03/12 09:19:41;;;;;;;14.15;8.13;;;9.70;80.80;;;;;;5051272;28;20041;-71
2022/03/12 09:22:07;;;;;;;11.93;7.93;;;9.80;80.60;;;;;;5034703;28;20191;-72
2022/03/12 09:24:34;;;;;;;10.45;7.85;;;9.90;80.70;;;;;;5051473;28;20041;-72
2022/03/12 09:27:00;;;;;;;11.02;8.13;;;10.00;80.60;;;;;;5035041;28;20127;-72
2022/03/12 09:29:26;;;;;;;10.77;8.60;;;10.20;81.90;;;;;;5050892;28;20568;-72
2022/03/12 09:31:52;;;;;;;11.20;7.65;;;10.50;82.40;;;;;;5034401;28;20507;-72
2022/03/12 09:34:18;;;;;;;11.00;6.60;;;10.50;82.40;;;;;;5034410;28;20041;-73
2022/03/12 09:36:44;;;;;;;11.00;6.90;;;10.70;82.00;;;;;;5051059;28;20487;-71
2022/03/12 09:39:10;;;;;;;9.95;7.30;;;10.80;82.00;;;;;;5034254;28;20049;-72
2022/03/12 09:41:38;;;;;;;11.95;7.43;;;10.80;82.90;;;;;;5050961;28;20060;-72
2022/03/12 09:44:05;;;;;;;13.88;7.82;;;10.80;82.80;;;;;;5050786;28;20408;-73
2022/03/12 09:46:31;;;;;;;10.23;7.68;;;10.90;82.80;;;;;;5034200;28;20041;-75
2022/03/12 09:48:56;;;;;;;10.43;7.45;;;11.10;83.70;;;;;;5050633;28;20511;-73
2022/03/12 09:51:25;;;;;;;8.90;7.22;;;11.30;83.60;;;;;;5034308;28;20456;-70
2022/03/12 09:53:51;;;;;;;10.85;7.25;;;11.40;83.40;;;;;;5051313;28;20056;-71
2022/03/12 09:56:17;;;;;;;11.43;7.22;;;11.40;83.60;;;;;;5001276;28;20049;-71
2022/03/12 09:58:43;;;;;;;10.75;7.22;;;11.40;84.40;;;;;;5034127;28;20484;-71
2022/03/12 10:01:10;;;;;;;11.57;7.25;;;11.60;85.50;;;;;;5050302;28;20059;-71
2022/03/12 10:03:38;;;;;;;10.90;7.63;;;11.90;91.80;;;;;;5050384;28;20037;-72
2022/03/12 10:06:05;;;;;;;14.35;7.68;;;12.00;92.40;;;;;;5050514;28;20045;-73
2022/03/12 10:08:31;;;;;;;10.98;7.03;;;12.10;91.80;;;;;;5033691;28;20033;-72
2022/03/12 10:10:57;;;;;;;13.35;8.50;;;12.10;86.70;;;;;;5050844;28;20374;-73
2022/03/12 10:13:22;;;;;;;10.07;7.22;;;12.10;86.10;;;;;;5035237;28;20037;-71
2022/03/12 10:15:48;;;;;;;12.15;8.07;;;12.20;87.10;;;;;;5054778;28;20041;-72
2022/03/12 10:18:15;;;;;;;10.80;7.10;;;12.20;87.60;;;;;;5054549;28;20041;-73
2022/03/12 10:20:40;;;;;;;11.75;7.60;;;12.30;88.10;;;;;;5037882;28;20132;-72
2022/03/12 10:23:07;;;;;;;11.80;7.75;;;12.40;87.70;;;;;;5054690;28;20544;-72
2022/03/12 10:25:34;;;;;;;13.07;6.93;;;12.50;88.50;;;;;;5038143;28;20052;-72
2022/03/12 10:28:00;;;;;;;11.57;8.00;;;12.60;88.90;;;;;;5054257;28;20131;-73
2022/03/12 10:30:25;;;;;;;12.98;7.88;;;12.90;89.20;;;;;;5054222;28;20060;-72
2022/03/12 10:32:52;;;;;;;10.20;7.32;;;12.70;90.50;;;;;;5054944;28;20132;-72
2022/03/12 10:35:19;;;;;;;10.15;6.90;;;12.90;95.20;;;;;;5054219;28;20057;-72
2022/03/12 10:37:47;;;;;;;11.07;7.70;;;13.00;92.10;;;;;;5055404;28;20140;-72
2022/03/12 10:40:24;;;;;;;10.88;7.30;;;13.10;94.80;;;;;;5054117;28;20041;-72
2022/03/12 10:42:54;;;;;;;9.75;6.68;;;13.20;95.70;;;;;;5054373;28;20045;-72
2022/03/12 10:45:37;;;;;;;11.77;7.55;;;13.40;99.90;;;;;;5053978;28;20041;-73
2022/03/12 10:48:04;;;;;;;13.02;6.97;;;13.10;99.90;;;;;;5037436;28;20131;-72
2022/03/12 10:50:47;;;;;;;12.90;8.00;;;13.10;99.90;;;;;;5037271;28;20400;-72
2022/03/12 10:53:15;;;;;;;11.98;7.50;;;13.20;99.90;;;;;;5037545;28;20492;-72
2022/03/12 10:55:43;;;;;;;9.77;7.38;;;13.10;99.90;;;;;;5054208;28;20120;-74
2022/03/12 10:58:12;;;;;;;11.02;7.43;;;13.20;98.90;;;;;;5053996;28;20049;-72
2022/03/12 11:00:44;;;;;;;10.23;6.82;;;13.40;98.10;;;;;;5054035;28;20044;-73
2022/03/12 11:03:14;;;;;;;7.47;5.22;;;13.10;93.00;;;;;;5037223;28;20041;-72
2022/03/12 11:05:43;;;;;;;12.65;6.85;;;13.10;92.70;;;;;;5037487;28;20091;-72
2022/03/12 11:08:18;;;;;;;11.90;8.10;;;13.20;93.20;;;;;;5054294;28;20507;-72
2022/03/12 11:10:50;;;;;;;13.07;8.40;;;13.30;92.90;;;;;;5053965;28;20049;-75
2022/03/12 11:13:27;;;;;;;14.00;8.77;;;13.50;97.20;;;;;;5037161;28;20066;-73
2022/03/12 11:16:12;;;;;;;12.98;8.23;;;13.40;97.20;;;;;;5054022;28;20079;-74
2022/03/12 11:18:46;;;;;;;13.23;8.18;;;13.60;94.20;;;;;;5053582;28;20144;-73
2022/03/12 11:21:14;;;;;;;12.57;8.35;;;13.50;92.80;;;;;;5036686;28;20041;-72
2022/03/12 11:23:42;;;;;;;9.95;8.20;;;13.30;92.10;;;;;;5036153;28;20099;-72
2022/03/12 11:26:07;;;;;;;12.93;8.85;;;13.30;92.50;;;;;;5036779;28;20076;-73
2022/03/12 11:28:37;;;;;;;11.00;8.23;;;13.40;93.10;;;;;;5036864;28;20095;-73
2022/03/12 11:31:06;;;;;;;11.02;7.93;;;13.40;93.20;;;;;;5053575;28;20045;-72
2022/03/12 11:33:32;;;;;;;11.52;8.10;;;13.50;93.20;;;;;;5036487;28;20041;-73
2022/03/12 11:36:08;;;;;;;11.25;7.63;;;13.50;93.20;;;;;;5053326;28;20056;-73
2022/03/12 11:38:34;;;;;;;12.50;8.02;;;13.60;93.40;;;;;;5053248;28;20041;-72
2022/03/12 11:41:20;;;;;;;12.43;7.53;;;13.70;93.70;;;;;;5036379;28;20040;-73
2022/03/12 11:43:47;;;;;;;9.55;7.30;;;13.90;99.50;;;;;;5052873;28;20108;-73
2022/03/12 11:46:13;;;;;;;12.90;8.52;;;14.00;99.90;;;;;;5019950;28;20040;-72
2022/03/12 11:48:41;;;;;;;10.70;7.22;;;14.30;99.90;;;;;;5020070;28;20128;-72
2022/03/12 11:51:22;;;;;;;11.90;8.10;;;14.50;98.40;;;;;;5019866;28;20119;-72
2022/03/12 11:53:48;;;;;;;;;;;14.50;93.50;;;;;;5053414;28;20439;-72
2022/03/12 11:56:15;;;;;;;13.40;8.27;;;14.30;93.40;;;;;;5036062;28;19924;-72
2022/03/12 11:58:42;;;;;;;9.93;7.30;;;14.30;93.70;;;;;;5052596;28;20443;-73
2022/03/12 12:01:11;;;;;;;14.13;7.85;;;14.20;93.40;;;;;;5052623;28;20429;-73
2022/03/12 12:03:37;;;;;;;16.05;7.68;;;14.10;93.90;;;;;;5036389;28;20049;-73
2022/03/12 12:06:02;;;;;;;14.73;8.30;;;14.00;94.40;;;;;;5052784;28;20128;-73
2022/03/12 12:08:28;;;;;;;8.95;7.30;;;13.80;94.80;;;;;;5052274;28;20123;-73
2022/03/12 12:10:54;;;;;;;11.93;7.15;;;13.70;95.20;;;;;;5035681;28;20059;-73
2022/03/12 12:13:21;;;;;;;9.40;6.60;;;13.80;95.60;;;;;;5052364;28;20049;-74
2022/03/12 12:15:47;;;;;;;10.43;7.70;;;13.70;95.50;;;;;;5019423;28;20037;-74
2022/03/12 12:18:13;;;;;;;11.50;6.65;;;13.70;96.60;;;;;;5052114;28;20102;-74
2022/03/12 12:20:40;;;;;;;8.85;6.70;;;14.00;96.10;;;;;;5035538;28;20051;-74
2022/03/12 12:23:12;;;;;;;11.10;7.07;;;14.50;95.90;;;;;;5035594;28;20136;-74
2022/03/12 12:25:38;;;;;;;8.60;6.38;;;15.00;94.70;;;;;;5036272;28;20044;-74
2022/03/12 12:28:21;;;;;;;8.05;6.18;;;14.90;94.20;;;;;;5052105;28;20056;-74
2022/03/12 12:30:49;;;;;;;13.85;7.43;;;14.90;93.90;;;;;;5035356;28;20045;-73
2022/03/12 12:33:16;;;;;;;9.73;6.50;;;15.20;94.30;;;;;;5035274;28;20055;-73
2022/03/12 12:35:44;;;;;;;9.30;6.00;;;15.30;93.30;;;;;;5034115;28;20045;-72
2022/03/12 12:38:11;;;;;;;12.57;6.75;;;15.20;93.40;;;;;;5052097;28;20090;-73
2022/03/12 12:40:48;;;;;;;9.23;6.43;;;15.30;93.70;;;;;;5051772;28;20456;-73
2022/03/12 12:43:18;;;;;;;8.35;6.07;;;15.40;93.30;;;;;;5051723;28;20043;-74
2022/03/12 12:45:53;;;;;;;11.07;6.07;;;;;;;;;;5035363;28;20067;-75
2022/03/12 12:48:28;;;;;;;9.43;5.60;;;;;;;;;;5051454;28;20045;-73
2022/03/12 12:51:00;;;;;;;9.13;6.05;;;;;;;;;;5051667;28;20049;-73
2022/03/12 12:53:34;;;;;;;12.57;5.80;;;;;;;;;;5051826;28;20080;-74